createdAt,value
2018-09-09T00:00:13.516Z,17.60
2018-09-09T00:01:20.989Z,17.60
2018-09-09T00:02:27.220Z,17.60
2018-09-09T00:03:32.674Z,17.60
2018-09-09T00:04:37.820Z,17.60
2018-09-09T00:05:42.692Z,17.60
2018-09-09T00:06:48.153Z,17.60
2018-09-09T00:07:52.351Z,17.60
2018-09-09T00:08:58.309Z,17.50
2018-09-09T00:10:02.427Z,17.50
2018-09-09T00:11:06.641Z,17.50
2018-09-09T00:12:11.628Z,17.60
2018-09-09T00:13:15.935Z,17.50
2018-09-09T00:14:20.302Z,17.50
2018-09-09T00:15:26.164Z,17.50
2018-09-09T00:16:30.372Z,17.50
2018-09-09T00:17:35.178Z,17.50
2018-09-09T00:18:40.169Z,17.50
2018-09-09T00:19:44.326Z,17.50
2018-09-09T00:20:49.222Z,17.50
2018-09-09T00:21:54.187Z,17.50
2018-09-09T00:22:58.750Z,17.50
2018-09-09T00:24:03.559Z,17.50
2018-09-09T00:25:07.761Z,17.40
2018-09-09T00:26:12.544Z,17.40
2018-09-09T00:27:17.681Z,17.40
2018-09-09T00:28:22.089Z,17.40
2018-09-09T00:29:26.679Z,17.40
2018-09-09T00:30:31.123Z,17.40
2018-09-09T00:31:35.674Z,17.40
2018-09-09T00:32:41.455Z,17.40
2018-09-09T00:33:46.355Z,17.40
2018-09-09T00:34:50.526Z,17.30
2018-09-09T00:35:56.709Z,17.30
2018-09-09T00:37:01.734Z,17.30
2018-09-09T00:38:06.131Z,17.40
2018-09-09T00:39:10.272Z,17.40
2018-09-09T00:40:14.683Z,17.30
2018-09-09T00:41:18.733Z,17.30
2018-09-09T00:42:23.615Z,17.30
2018-09-09T00:43:27.811Z,17.30
2018-09-09T00:44:32.818Z,17.20
2018-09-09T00:45:38.190Z,17.20
2018-09-09T00:46:42.844Z,17.20
2018-09-09T00:47:47.454Z,17.20
2018-09-09T00:48:59.174Z,17.20
2018-09-09T00:50:08.347Z,17.20
2018-09-09T00:51:17.731Z,17.20
2018-09-09T00:52:27.289Z,17.20
2018-09-09T00:53:36.905Z,17.10
2018-09-09T00:54:41.060Z,17.20
2018-09-09T00:55:45.071Z,17.20
2018-09-09T00:56:49.197Z,17.20
2018-09-09T00:57:54.425Z,17.20
2018-09-09T00:58:58.875Z,17.10
2018-09-09T01:00:04.174Z,17.10
2018-09-09T01:01:13.771Z,17.10
2018-09-09T01:02:18.143Z,17.10
2018-09-09T01:03:22.472Z,17.10
2018-09-09T01:04:26.878Z,17.10
2018-09-09T01:05:31.031Z,17.10
2018-09-09T01:06:35.491Z,17.10
2018-09-09T01:07:39.848Z,17.10
2018-09-09T01:08:43.886Z,17.10
2018-09-09T01:09:48.017Z,17.10
2018-09-09T01:10:52.726Z,17.10
2018-09-09T01:11:56.777Z,17.10
2018-09-09T01:13:01.204Z,17.10
2018-09-09T01:14:06.412Z,17.10
2018-09-09T01:15:11.012Z,17.10
2018-09-09T01:16:15.943Z,17.10
2018-09-09T01:17:19.994Z,17.10
2018-09-09T01:18:24.326Z,17.10
2018-09-09T01:19:28.769Z,17.10
2018-09-09T01:20:32.996Z,17.00
2018-09-09T01:21:37.114Z,17.10
2018-09-09T01:22:41.123Z,17.00
2018-09-09T01:23:45.714Z,17.00
2018-09-09T01:24:50.238Z,17.00
2018-09-09T01:25:54.764Z,16.90
2018-09-09T01:26:59.234Z,16.90
2018-09-09T01:28:03.848Z,16.90
2018-09-09T01:29:08.712Z,16.90
2018-09-09T01:30:13.204Z,16.90
2018-09-09T01:31:17.492Z,16.90
2018-09-09T01:32:21.978Z,16.90
2018-09-09T01:33:26.305Z,16.90
2018-09-09T01:34:30.612Z,16.80
2018-09-09T01:35:35.078Z,16.80
2018-09-09T01:36:39.391Z,16.80
2018-09-09T01:37:43.582Z,16.80
2018-09-09T01:38:48.135Z,16.80
2018-09-09T01:39:52.639Z,17.70
2018-09-09T01:40:56.972Z,16.70
2018-09-09T01:42:01.360Z,16.70
2018-09-09T01:43:05.484Z,16.70
2018-09-09T01:44:09.731Z,16.60
2018-09-09T01:45:13.819Z,16.70
2018-09-09T01:46:18.422Z,16.70
2018-09-09T01:47:22.683Z,16.80
2018-09-09T01:48:27.139Z,16.80
2018-09-09T01:49:31.215Z,16.70
2018-09-09T01:50:35.338Z,16.70
2018-09-09T01:51:39.474Z,16.70
2018-09-09T01:52:43.839Z,16.70
2018-09-09T01:53:47.890Z,16.80
2018-09-09T01:54:52.641Z,16.80
2018-09-09T01:55:57.335Z,16.80
2018-09-09T01:57:02.052Z,16.80
2018-09-09T01:58:06.786Z,16.80
2018-09-09T01:59:11.404Z,16.80
2018-09-09T02:00:15.582Z,16.80
2018-09-09T02:01:20.004Z,16.70
2018-09-09T02:02:24.158Z,16.80
2018-09-09T02:03:28.978Z,16.80
2018-09-09T02:04:33.611Z,16.80
2018-09-09T02:05:38.205Z,16.80
2018-09-09T02:06:42.649Z,16.80
2018-09-09T02:07:46.792Z,16.80
2018-09-09T02:08:51.527Z,16.80
2018-09-09T02:09:56.419Z,16.80
2018-09-09T02:11:01.522Z,16.70
2018-09-09T02:12:05.849Z,16.70
2018-09-09T02:13:10.478Z,16.70
2018-09-09T02:14:14.752Z,16.80
2018-09-09T02:15:19.492Z,16.70
2018-09-09T02:16:24.718Z,16.70
2018-09-09T02:17:29.385Z,16.70
2018-09-09T02:18:33.775Z,16.70
2018-09-09T02:19:37.915Z,16.80
2018-09-09T02:20:43.671Z,16.80
2018-09-09T02:21:48.661Z,16.80
2018-09-09T02:22:53.214Z,16.80
2018-09-09T02:23:57.698Z,16.80
2018-09-09T02:25:01.914Z,16.70
2018-09-09T02:26:06.754Z,16.70
2018-09-09T02:27:11.364Z,16.70
2018-09-09T02:28:15.974Z,16.70
2018-09-09T02:29:20.144Z,16.60
2018-09-09T02:30:24.384Z,16.60
2018-09-09T02:31:28.662Z,16.60
2018-09-09T02:32:33.444Z,16.60
2018-09-09T02:33:38.118Z,16.60
2018-09-09T02:34:43.489Z,16.60
2018-09-09T02:35:47.606Z,16.60
2018-09-09T02:36:51.783Z,16.60
2018-09-09T02:37:57.170Z,16.60
2018-09-09T02:39:01.354Z,16.60
2018-09-09T02:40:05.979Z,16.60
2018-09-09T02:41:10.186Z,16.60
2018-09-09T02:42:14.485Z,16.60
2018-09-09T02:43:18.582Z,16.60
2018-09-09T02:44:22.891Z,16.60
2018-09-09T02:45:27.378Z,16.60
2018-09-09T02:46:32.183Z,16.60
2018-09-09T02:47:36.899Z,16.60
2018-09-09T02:48:41.683Z,16.60
2018-09-09T02:49:46.274Z,16.50
2018-09-09T02:50:50.642Z,16.60
2018-09-09T02:51:55.158Z,16.50
2018-09-09T02:52:59.786Z,16.50
2018-09-09T02:54:04.487Z,16.50
2018-09-09T02:55:08.813Z,16.50
2018-09-09T02:56:13.053Z,16.50
2018-09-09T02:57:17.163Z,16.50
2018-09-09T02:58:21.584Z,16.50
2018-09-09T02:59:25.726Z,16.50
2018-09-09T03:00:30.284Z,16.50
2018-09-09T03:01:34.484Z,16.50
2018-09-09T03:02:38.604Z,16.50
2018-09-09T03:03:42.690Z,16.50
2018-09-09T03:04:47.150Z,16.50
2018-09-09T03:05:51.345Z,16.50
2018-09-09T03:06:55.507Z,16.50
2018-09-09T03:07:59.607Z,16.40
2018-09-09T03:09:03.888Z,16.40
2018-09-09T03:10:08.032Z,16.40
2018-09-09T03:11:15.233Z,16.40
2018-09-09T03:12:19.581Z,16.40
2018-09-09T03:13:23.659Z,16.40
2018-09-09T03:14:29.274Z,16.40
2018-09-09T03:15:33.409Z,16.40
2018-09-09T03:16:37.846Z,16.40
2018-09-09T03:17:42.090Z,16.40
2018-09-09T03:18:46.127Z,16.40
2018-09-09T03:19:51.022Z,16.40
2018-09-09T03:20:55.187Z,16.40
2018-09-09T03:21:59.360Z,16.40
2018-09-09T03:23:03.842Z,16.40
2018-09-09T03:24:07.972Z,16.40
2018-09-09T03:25:12.179Z,16.40
2018-09-09T03:26:16.323Z,16.40
2018-09-09T03:27:20.478Z,16.40
2018-09-09T03:28:24.606Z,16.40
2018-09-09T03:29:29.533Z,16.40
2018-09-09T03:30:34.851Z,16.40
2018-09-09T03:31:38.929Z,16.30
2018-09-09T03:32:43.052Z,16.40
2018-09-09T03:33:47.270Z,16.30
2018-09-09T03:34:51.368Z,16.30
2018-09-09T03:35:55.768Z,16.30
2018-09-09T03:36:59.877Z,16.30
2018-09-09T03:38:04.080Z,16.30
2018-09-09T03:39:09.990Z,16.30
2018-09-09T03:40:14.190Z,16.30
2018-09-09T03:41:18.271Z,16.30
2018-09-09T03:42:23.181Z,16.30
2018-09-09T03:43:27.425Z,16.30
2018-09-09T03:44:31.565Z,16.30
2018-09-09T03:45:35.595Z,16.40
2018-09-09T03:46:39.673Z,16.40
2018-09-09T03:47:44.562Z,16.40
2018-09-09T03:48:48.605Z,16.40
2018-09-09T03:49:52.766Z,16.40
2018-09-09T03:50:57.042Z,16.40
2018-09-09T03:52:01.105Z,16.40
2018-09-09T03:53:05.234Z,16.30
2018-09-09T03:54:09.334Z,16.30
2018-09-09T03:55:13.369Z,16.30
2018-09-09T03:56:17.652Z,16.30
2018-09-09T03:57:21.852Z,16.30
2018-09-09T03:58:25.988Z,16.30
2018-09-09T03:59:30.156Z,16.20
2018-09-09T04:00:34.393Z,16.20
2018-09-09T04:01:38.594Z,16.20
2018-09-09T04:02:42.753Z,16.20
2018-09-09T04:03:46.946Z,16.20
2018-09-09T04:04:51.034Z,16.20
2018-09-09T04:05:55.125Z,16.20
2018-09-09T04:06:59.301Z,16.10
2018-09-09T04:08:03.549Z,16.20
2018-09-09T04:09:08.441Z,16.20
2018-09-09T04:10:12.692Z,16.20
2018-09-09T04:11:16.894Z,16.20
2018-09-09T04:12:21.404Z,16.10
2018-09-09T04:13:25.706Z,16.10
2018-09-09T04:14:29.832Z,16.10
2018-09-09T04:15:33.977Z,16.10
2018-09-09T04:16:38.352Z,16.10
2018-09-09T04:17:42.703Z,16.10
2018-09-09T04:18:47.178Z,16.10
2018-09-09T04:19:51.323Z,16.10
2018-09-09T04:20:55.391Z,16.10
2018-09-09T04:21:59.471Z,16.10
2018-09-09T04:23:03.622Z,16.10
2018-09-09T04:24:07.794Z,16.10
2018-09-09T04:25:12.183Z,16.10
2018-09-09T04:26:16.285Z,16.10
2018-09-09T04:27:20.375Z,16.10
2018-09-09T04:28:25.941Z,16.20
2018-09-09T04:29:30.043Z,16.20
2018-09-09T04:30:34.153Z,16.20
2018-09-09T04:31:38.257Z,16.20
2018-09-09T04:32:42.363Z,16.20
2018-09-09T04:33:47.621Z,16.20
2018-09-09T04:34:51.688Z,16.20
2018-09-09T04:35:56.039Z,16.20
2018-09-09T04:37:01.602Z,16.20
2018-09-09T04:38:05.637Z,16.20
2018-09-09T04:39:12.450Z,16.20
2018-09-09T04:40:16.752Z,16.20
2018-09-09T04:41:21.009Z,16.20
2018-09-09T04:42:25.131Z,16.20
2018-09-09T04:43:29.719Z,16.20
2018-09-09T04:44:35.239Z,16.20
2018-09-09T04:45:39.327Z,16.20
2018-09-09T04:46:43.562Z,16.20
2018-09-09T04:47:47.638Z,16.20
2018-09-09T04:48:51.774Z,16.20
2018-09-09T04:49:55.825Z,16.10
2018-09-09T04:50:59.939Z,16.10
2018-09-09T04:52:04.023Z,16.10
2018-09-09T04:53:08.215Z,16.10
2018-09-09T04:54:12.614Z,16.10
2018-09-09T04:55:16.717Z,16.10
2018-09-09T04:56:21.374Z,16.10
2018-09-09T04:57:25.711Z,16.10
2018-09-09T04:58:30.192Z,16.10
2018-09-09T04:59:34.300Z,16.10
2018-09-09T05:00:38.399Z,16.10
2018-09-09T05:01:43.010Z,16.10
2018-09-09T05:02:47.274Z,16.10
2018-09-09T05:03:51.951Z,16.10
2018-09-09T05:04:56.093Z,16.10
2018-09-09T05:06:00.745Z,16.10
2018-09-09T05:07:04.961Z,16.10
2018-09-09T05:08:09.119Z,16.10
2018-09-09T05:09:13.219Z,16.10
2018-09-09T05:10:17.572Z,16.10
2018-09-09T05:11:21.755Z,16.10
2018-09-09T05:12:26.085Z,16.10
2018-09-09T05:13:30.807Z,16.10
2018-09-09T05:14:34.922Z,16.10
2018-09-09T05:15:39.382Z,16.00
2018-09-09T05:16:43.480Z,16.00
2018-09-09T05:17:47.570Z,16.00
2018-09-09T05:18:51.982Z,16.00
2018-09-09T05:19:56.418Z,16.00
2018-09-09T05:21:00.513Z,16.00
2018-09-09T05:22:04.598Z,16.00
2018-09-09T05:23:08.651Z,16.10
2018-09-09T05:24:12.977Z,16.10
2018-09-09T05:25:17.589Z,16.10
2018-09-09T05:26:21.686Z,16.10
2018-09-09T05:27:25.735Z,16.10
2018-09-09T05:28:30.714Z,16.10
2018-09-09T05:29:34.803Z,16.10
2018-09-09T05:30:38.932Z,16.10
2018-09-09T05:31:43.335Z,16.10
2018-09-09T05:32:47.730Z,16.10
2018-09-09T05:33:51.829Z,16.10
2018-09-09T05:34:55.961Z,16.10
2018-09-09T05:36:00.097Z,16.20
2018-09-09T05:37:04.228Z,15.20
2018-09-09T05:38:08.647Z,16.20
2018-09-09T05:39:12.903Z,16.20
2018-09-09T05:40:16.958Z,16.10
2018-09-09T05:41:21.114Z,16.20
2018-09-09T05:42:25.223Z,16.20
2018-09-09T05:43:29.276Z,16.20
2018-09-09T05:44:33.587Z,16.20
2018-09-09T05:45:37.639Z,16.20
2018-09-09T05:46:41.674Z,16.20
2018-09-09T05:47:45.801Z,16.20
2018-09-09T05:48:50.128Z,16.20
2018-09-09T05:49:54.168Z,16.20
2018-09-09T05:50:58.541Z,16.20
2018-09-09T05:52:02.698Z,16.20
2018-09-09T05:53:07.672Z,16.20
2018-09-09T05:54:11.801Z,16.20
2018-09-09T05:55:16.396Z,16.20
2018-09-09T05:56:20.650Z,16.20
2018-09-09T05:57:24.855Z,16.20
2018-09-09T05:58:28.969Z,16.20
2018-09-09T05:59:33.230Z,16.20
2018-09-09T06:00:37.452Z,16.10
2018-09-09T06:01:41.742Z,16.10
2018-09-09T06:02:46.350Z,16.10
2018-09-09T06:03:50.496Z,16.10
2018-09-09T06:04:55.095Z,16.20
2018-09-09T06:05:59.404Z,16.10
2018-09-09T06:07:04.177Z,16.20
2018-09-09T06:08:09.123Z,16.10
2018-09-09T06:09:13.966Z,17.00
2018-09-09T06:10:18.135Z,16.10
2018-09-09T06:11:22.554Z,16.10
2018-09-09T06:12:26.699Z,16.10
2018-09-09T06:13:30.989Z,16.20
2018-09-09T06:14:35.048Z,16.20
2018-09-09T06:15:39.166Z,16.20
2018-09-09T06:16:43.298Z,16.20
2018-09-09T06:17:48.692Z,16.20
2018-09-09T06:18:55.813Z,16.20
2018-09-09T06:20:00.244Z,16.20
2018-09-09T06:21:04.708Z,16.20
2018-09-09T06:22:09.055Z,16.20
2018-09-09T06:23:13.241Z,16.20
2018-09-09T06:24:17.395Z,16.20
2018-09-09T06:25:21.824Z,16.30
2018-09-09T06:26:26.795Z,16.30
2018-09-09T06:27:31.121Z,16.30
2018-09-09T06:28:36.187Z,16.20
2018-09-09T06:29:41.162Z,16.20
2018-09-09T06:30:45.267Z,16.60
2018-09-09T06:31:50.031Z,16.30
2018-09-09T06:32:54.286Z,16.20
2018-09-09T06:33:59.712Z,16.30
2018-09-09T06:35:03.795Z,16.20
2018-09-09T06:36:09.120Z,16.30
2018-09-09T06:37:13.777Z,16.30
2018-09-09T06:38:18.162Z,16.30
2018-09-09T06:39:22.258Z,16.30
2018-09-09T06:40:26.300Z,16.30
2018-09-09T06:41:30.652Z,16.30
2018-09-09T06:42:34.963Z,16.30
2018-09-09T06:43:39.737Z,16.30
2018-09-09T06:44:44.920Z,16.40
2018-09-09T06:45:50.465Z,16.30
2018-09-09T06:46:54.750Z,16.40
2018-09-09T06:47:59.105Z,16.40
2018-09-09T06:49:07.654Z,16.40
2018-09-09T06:50:12.782Z,16.40
2018-09-09T06:51:17.130Z,16.50
2018-09-09T06:52:21.286Z,16.50
2018-09-09T06:53:27.970Z,16.50
2018-09-09T06:54:34.347Z,16.50
2018-09-09T06:55:39.492Z,16.50
2018-09-09T06:56:43.891Z,16.60
2018-09-09T06:57:48.568Z,16.60
2018-09-09T06:58:59.701Z,16.60
2018-09-09T07:00:04.660Z,16.60
2018-09-09T07:01:10.839Z,16.60
2018-09-09T07:02:19.412Z,16.70
2018-09-09T07:03:27.199Z,16.70
2018-09-09T07:04:33.683Z,16.70
2018-09-09T07:05:37.825Z,16.70
2018-09-09T07:06:44.462Z,16.70
2018-09-09T07:07:49.297Z,16.70
2018-09-09T07:08:53.417Z,16.70
2018-09-09T07:10:00.490Z,16.70
2018-09-09T07:11:04.662Z,16.70
2018-09-09T07:12:10.326Z,16.70
2018-09-09T07:13:16.752Z,16.70
2018-09-09T07:14:21.749Z,16.80
2018-09-09T07:15:27.744Z,16.80
2018-09-09T07:16:33.088Z,16.80
2018-09-09T07:17:39.421Z,16.80
2018-09-09T07:18:43.551Z,16.90
2018-09-09T07:19:50.903Z,16.90
2018-09-09T07:21:02.051Z,16.90
2018-09-09T07:22:07.189Z,17.00
2018-09-09T07:23:15.114Z,17.00
2018-09-09T07:24:20.447Z,17.00
2018-09-09T07:25:25.731Z,17.00
2018-09-09T07:26:35.140Z,17.10
2018-09-09T07:27:40.697Z,17.10
2018-09-09T07:30:10.711Z,17.20
2018-09-09T07:31:17.551Z,17.20
2018-09-09T07:32:40.775Z,17.10
2018-09-09T07:33:53.960Z,17.20
2018-09-09T07:35:13.539Z,17.10
2018-09-09T07:36:19.230Z,17.20
2018-09-09T07:37:23.457Z,17.20
2018-09-09T07:38:31.093Z,17.20
2018-09-09T07:39:35.746Z,17.20
2018-09-09T07:40:40.384Z,17.20
2018-09-09T07:41:46.204Z,17.20
2018-09-09T07:42:50.540Z,17.20
2018-09-09T07:43:54.833Z,17.20
2018-09-09T07:44:59.630Z,17.20
2018-09-09T07:46:03.892Z,17.30
2018-09-09T07:47:09.037Z,17.30
2018-09-09T07:48:13.332Z,17.30
2018-09-09T07:49:17.630Z,17.30
2018-09-09T07:50:22.648Z,17.30
2018-09-09T07:51:27.023Z,17.30
2018-09-09T07:52:31.280Z,17.40
2018-09-09T07:53:36.672Z,18.00
2018-09-09T07:54:43.015Z,17.50
2018-09-09T07:55:47.331Z,17.50
2018-09-09T07:56:53.281Z,17.50
2018-09-09T07:57:58.557Z,17.50
2018-09-09T07:59:03.904Z,17.60
2018-09-09T08:00:08.959Z,17.60
2018-09-09T08:01:13.174Z,17.60
2018-09-09T08:02:17.263Z,17.70
2018-09-09T08:03:24.401Z,17.70
2018-09-09T08:04:28.955Z,17.70
2018-09-09T08:05:33.573Z,17.80
2018-09-09T08:06:37.781Z,17.80
2018-09-09T08:08:06.149Z,17.00
2018-09-09T08:09:11.509Z,17.90
2018-09-09T08:10:17.296Z,18.00
2018-09-09T08:11:54.760Z,18.00
2018-09-09T08:13:11.509Z,18.10
2018-09-09T08:14:24.059Z,18.10
2018-09-09T08:16:59.066Z,18.20
2018-09-09T08:18:18.726Z,18.20
2018-09-09T08:19:47.815Z,18.30
2018-09-09T08:21:22.398Z,18.30
2018-09-09T08:22:35.558Z,18.30
2018-09-09T08:23:46.479Z,18.30
2018-09-09T08:25:02.499Z,18.40
2018-09-09T08:26:17.279Z,18.40
2018-09-09T08:27:22.435Z,18.40
2018-09-09T08:28:27.153Z,18.40
2018-09-09T08:29:32.482Z,18.50
2018-09-09T08:30:38.099Z,18.50
2018-09-09T08:31:47.806Z,18.60
2018-09-09T08:32:53.820Z,18.60
2018-09-09T08:33:58.051Z,18.60
2018-09-09T08:35:02.371Z,18.60
2018-09-09T08:36:07.567Z,18.70
2018-09-09T08:37:11.661Z,18.70
2018-09-09T08:38:19.467Z,18.70
2018-09-09T08:39:27.727Z,18.80
2018-09-09T08:40:32.024Z,18.80
2018-09-09T08:41:45.836Z,18.80
2018-09-09T08:42:52.516Z,18.90
2018-09-09T08:43:56.940Z,19.00
2018-09-09T08:45:03.090Z,19.00
2018-09-09T08:46:16.173Z,19.00
2018-09-09T08:47:22.187Z,19.10
2018-09-09T08:48:26.753Z,19.10
2018-09-09T08:49:57.748Z,19.20
2018-09-09T08:51:05.779Z,19.20
2018-09-09T08:53:47.569Z,19.30
2018-09-09T08:54:52.600Z,19.40
2018-09-09T08:55:58.108Z,19.40
2018-09-09T08:57:04.228Z,19.40
2018-09-09T08:58:12.052Z,19.40
2018-09-09T08:59:17.004Z,19.50
2018-09-09T09:00:22.639Z,19.50
2018-09-09T09:01:28.284Z,19.50
2018-09-09T09:02:32.961Z,19.50
2018-09-09T09:03:38.422Z,19.60
2018-09-09T09:04:43.754Z,19.60
2018-09-09T09:06:04.631Z,19.60
2018-09-09T09:07:13.685Z,19.70
2018-09-09T09:08:19.881Z,19.70
2018-09-09T09:09:24.371Z,19.70
2018-09-09T09:10:35.097Z,19.80
2018-09-09T09:11:39.663Z,19.80
2018-09-09T09:12:45.775Z,19.80
2018-09-09T09:13:50.793Z,19.90
2018-09-09T09:14:56.308Z,19.90
2018-09-09T09:16:04.830Z,19.90
2018-09-09T09:17:11.595Z,20.00
2018-09-09T09:18:18.735Z,20.00
2018-09-09T09:19:23.191Z,20.10
2018-09-09T09:20:31.028Z,20.10
2018-09-09T09:21:36.860Z,20.10
2018-09-09T09:22:41.243Z,20.20
2018-09-09T09:23:47.308Z,20.20
2018-09-09T09:24:52.410Z,20.20
2018-09-09T09:25:56.842Z,20.20
2018-09-09T09:27:06.850Z,20.20
2018-09-09T09:28:14.190Z,20.20
2018-09-09T09:29:25.552Z,20.20
2018-09-09T09:30:31.797Z,20.20
2018-09-09T09:31:37.221Z,20.10
2018-09-09T09:32:45.800Z,20.10
2018-09-09T09:33:52.782Z,20.10
2018-09-09T09:34:58.757Z,20.10
2018-09-09T09:36:03.876Z,20.10
2018-09-09T09:37:08.794Z,20.10
2018-09-09T09:38:21.769Z,20.10
2018-09-09T09:39:27.628Z,20.10
2018-09-09T09:40:34.494Z,20.20
2018-09-09T09:41:39.029Z,20.20
2018-09-09T09:42:45.859Z,20.30
2018-09-09T09:45:21.993Z,20.50
2018-09-09T09:47:08.984Z,20.60
2018-09-09T09:50:24.714Z,20.70
2018-09-09T09:51:42.173Z,20.70
2018-09-09T09:54:07.092Z,20.70
2018-09-09T09:55:13.275Z,20.70
2018-09-09T09:56:21.989Z,20.70
2018-09-09T09:57:31.047Z,20.60
2018-09-09T10:00:42.042Z,20.60
2018-09-09T10:01:47.069Z,20.60
2018-09-09T10:02:55.646Z,20.70
2018-09-09T10:04:00.852Z,20.70
2018-09-09T10:05:06.285Z,20.70
2018-09-09T10:06:13.722Z,20.70
2018-09-09T10:07:23.935Z,20.80
2018-09-09T10:08:30.096Z,20.80
2018-09-09T10:09:36.835Z,20.90
2018-09-09T10:10:41.611Z,21.00
2018-09-09T10:11:47.093Z,21.00
2018-09-09T10:12:52.551Z,21.10
2018-09-09T10:13:58.118Z,21.20
2018-09-09T10:15:02.828Z,21.20
2018-09-09T10:16:08.328Z,21.30
2018-09-09T10:17:13.073Z,21.30
2018-09-09T10:18:19.430Z,21.30
2018-09-09T10:19:24.084Z,21.40
2018-09-09T10:20:29.311Z,21.40
2018-09-09T10:21:36.884Z,21.30
2018-09-09T10:22:42.132Z,21.30
2018-09-09T10:23:47.320Z,21.30
2018-09-09T10:24:56.993Z,21.40
2018-09-09T10:26:09.772Z,21.40
2018-09-09T10:27:17.611Z,21.40
2018-09-09T10:28:25.571Z,21.40
2018-09-09T10:29:33.464Z,21.40
2018-09-09T10:30:41.135Z,21.40
2018-09-09T10:31:47.066Z,21.50
2018-09-09T10:32:52.265Z,21.50
2018-09-09T10:33:57.559Z,21.50
2018-09-09T10:35:03.943Z,21.50
2018-09-09T10:36:16.751Z,21.60
2018-09-09T10:37:25.464Z,21.60
2018-09-09T10:38:41.475Z,21.60
2018-09-09T10:39:52.377Z,21.70
2018-09-09T10:41:05.711Z,21.70
2018-09-09T10:42:12.086Z,21.90
2018-09-09T10:43:22.848Z,22.00
2018-09-09T10:44:27.763Z,22.10
2018-09-09T10:45:34.779Z,22.20
2018-09-09T10:46:41.754Z,22.30
2018-09-09T10:47:46.247Z,22.40
2018-09-09T10:48:57.419Z,22.60
2018-09-09T10:50:12.356Z,22.70
2018-09-09T10:51:18.452Z,22.70
2018-09-09T10:52:25.938Z,22.80
2018-09-09T10:53:34.588Z,22.90
2018-09-09T10:54:44.427Z,22.90
2018-09-09T10:56:02.047Z,23.00
2018-09-09T10:57:15.411Z,23.00
2018-09-09T10:58:22.001Z,23.00
2018-09-09T10:59:26.738Z,23.10
2018-09-09T11:00:32.416Z,23.10
2018-09-09T11:01:37.301Z,21.60
2018-09-09T11:02:42.287Z,23.20
2018-09-09T11:03:51.094Z,23.20
2018-09-09T11:04:56.421Z,23.20
2018-09-09T11:06:14.127Z,23.20
2018-09-09T11:07:23.269Z,23.30
2018-09-09T11:08:27.923Z,23.30
2018-09-09T11:09:35.211Z,23.30
2018-09-09T11:10:43.265Z,23.40
2018-09-09T11:11:49.140Z,23.50
2018-09-09T11:12:54.879Z,23.50
2018-09-09T11:14:01.474Z,23.60
2018-09-09T11:15:11.908Z,23.60
2018-09-09T11:16:16.856Z,23.70
2018-09-09T11:17:25.233Z,23.80
2018-09-09T11:18:33.570Z,23.90
2018-09-09T11:19:40.181Z,23.90
2018-09-09T11:20:49.166Z,24.00
2018-09-09T11:21:56.351Z,24.00
2018-09-09T11:23:07.797Z,23.90
2018-09-09T11:24:15.697Z,23.90
2018-09-09T11:25:21.733Z,23.90
2018-09-09T11:26:27.379Z,23.90
2018-09-09T11:27:35.090Z,24.00
2018-09-09T11:28:47.097Z,24.10
2018-09-09T11:29:52.335Z,24.10
2018-09-09T11:31:00.478Z,24.30
2018-09-09T11:32:04.823Z,24.40
2018-09-09T11:33:10.626Z,24.50
2018-09-09T11:34:16.030Z,24.50
2018-09-09T11:35:27.964Z,24.60
2018-09-09T11:36:32.613Z,24.70
2018-09-09T11:37:37.657Z,25.20
2018-09-09T11:38:42.934Z,26.60
2018-09-09T11:39:47.463Z,27.90
2018-09-09T11:40:54.688Z,29.40
2018-09-09T11:41:59.680Z,31.30
2018-09-09T11:43:21.737Z,32.70
2018-09-09T11:44:27.043Z,34.60
2018-09-09T11:45:31.650Z,35.80
2018-09-09T11:46:36.276Z,36.50
2018-09-09T11:47:40.852Z,37.00
2018-09-09T11:48:48.276Z,37.30
2018-09-09T11:49:54.009Z,37.00
2018-09-09T11:50:59.425Z,37.20
2018-09-09T11:52:07.607Z,36.50
2018-09-09T11:53:12.681Z,35.60
2018-09-09T11:54:18.261Z,34.90
2018-09-09T11:55:22.958Z,34.20
2018-09-09T11:56:34.667Z,33.80
2018-09-09T11:57:50.818Z,33.40
2018-09-09T11:58:58.460Z,33.30
2018-09-09T12:00:05.569Z,33.20
2018-09-09T12:01:11.695Z,32.80
2018-09-09T12:02:18.426Z,32.90
2018-09-09T12:03:25.131Z,33.80
2018-09-09T12:04:30.558Z,34.80
2018-09-09T12:05:36.624Z,36.10
2018-09-09T12:06:43.393Z,37.70
2018-09-09T12:09:39.096Z,40.50
2018-09-09T12:10:58.774Z,41.50
2018-09-09T12:12:03.823Z,42.50
2018-09-09T12:13:18.206Z,43.90
2018-09-09T12:14:23.368Z,44.80
2018-09-09T12:15:31.058Z,45.90
2018-09-09T12:17:00.088Z,46.40
2018-09-09T12:21:15.110Z,47.00
2018-09-09T12:22:37.858Z,45.50
2018-09-09T12:23:47.195Z,45.80
2018-09-09T12:25:54.493Z,46.90
2018-09-09T12:28:07.434Z,49.10
2018-09-09T12:29:13.915Z,49.50
2018-09-09T12:30:19.022Z,49.30
2018-09-09T12:31:24.801Z,48.90
2018-09-09T12:32:30.105Z,48.30
2018-09-09T12:33:38.214Z,47.40
2018-09-09T12:34:42.427Z,45.90
2018-09-09T12:35:46.713Z,44.90
2018-09-09T12:36:53.610Z,44.40
2018-09-09T12:38:05.220Z,45.00
2018-09-09T12:39:13.917Z,45.90
2018-09-09T12:40:21.907Z,46.70
2018-09-09T12:41:29.071Z,46.50
2018-09-09T12:42:33.767Z,44.70
2018-09-09T12:43:44.008Z,43.40
2018-09-09T12:44:56.507Z,43.10
2018-09-09T12:46:07.010Z,43.50
2018-09-09T12:47:21.720Z,44.70
2018-09-09T12:48:40.311Z,45.50
2018-09-09T12:49:47.019Z,46.10
2018-09-09T12:50:52.353Z,46.70
2018-09-09T12:51:59.624Z,47.20
2018-09-09T12:53:05.321Z,47.10
2018-09-09T12:54:10.926Z,46.80
2018-09-09T12:55:25.325Z,47.00
2018-09-09T12:56:50.297Z,46.60
2018-09-09T12:57:59.448Z,45.10
2018-09-09T12:59:28.037Z,42.50
2018-09-09T13:00:44.134Z,40.10
2018-09-09T13:01:49.465Z,38.10
2018-09-09T13:02:54.226Z,36.80
2018-09-09T13:04:01.712Z,35.40
2018-09-09T13:05:09.720Z,34.10
2018-09-09T13:06:21.186Z,33.00
2018-09-09T13:07:25.446Z,32.50
2018-09-09T13:08:33.257Z,31.70
2018-09-09T13:09:39.366Z,31.00
2018-09-09T13:11:14.193Z,30.60
2018-09-09T13:12:18.631Z,30.30
2018-09-09T13:13:23.641Z,29.80
2018-09-09T13:14:28.345Z,29.40
2018-09-09T13:16:47.314Z,29.10
2018-09-09T13:17:52.506Z,28.70
2018-09-09T13:18:58.254Z,28.10
2018-09-09T13:20:02.911Z,28.20
2018-09-09T13:21:07.696Z,28.10
2018-09-09T13:22:13.776Z,28.10
2018-09-09T13:23:19.529Z,28.00
2018-09-09T13:24:24.848Z,27.80
2018-09-09T13:25:29.442Z,27.60
2018-09-09T13:26:34.291Z,27.60
2018-09-09T13:27:40.772Z,27.40
2018-09-09T13:28:50.125Z,27.30
2018-09-09T13:29:55.208Z,27.10
2018-09-09T13:30:59.781Z,27.00
2018-09-09T13:32:06.085Z,26.90
2018-09-09T13:33:10.359Z,26.70
2018-09-09T13:34:15.378Z,26.60
2018-09-09T13:35:21.262Z,26.60
2018-09-09T13:36:25.824Z,26.40
2018-09-09T13:37:32.361Z,26.30
2018-09-09T13:38:38.062Z,26.30
2018-09-09T13:39:43.679Z,26.30
2018-09-09T13:40:48.747Z,26.30
2018-09-09T13:41:57.270Z,26.30
2018-09-09T13:43:05.331Z,26.30
2018-09-09T13:44:09.712Z,26.30
2018-09-09T13:45:15.048Z,26.50
2018-09-09T13:46:19.351Z,26.10
2018-09-09T13:47:25.682Z,25.80
2018-09-09T13:48:42.538Z,26.20
2018-09-09T13:49:50.606Z,26.20
2018-09-09T13:50:55.086Z,26.20
2018-09-09T13:51:59.770Z,26.10
2018-09-09T13:53:07.602Z,26.20
2018-09-09T13:54:12.865Z,26.30
2018-09-09T13:55:19.910Z,26.40
2018-09-09T13:56:24.744Z,26.20
2018-09-09T13:57:30.478Z,26.50
2018-09-09T13:58:35.193Z,26.50
2018-09-09T13:59:39.739Z,26.50
2018-09-09T14:00:44.641Z,26.50
2018-09-09T14:01:49.169Z,26.70
2018-09-09T14:02:58.808Z,26.40
2018-09-09T14:04:04.426Z,26.50
2018-09-09T14:05:10.679Z,26.40
2018-09-09T14:06:15.310Z,26.40
2018-09-09T14:07:19.811Z,26.30
2018-09-09T14:08:24.800Z,26.30
2018-09-09T14:09:29.169Z,26.30
2018-09-09T14:10:34.103Z,26.20
2018-09-09T14:11:39.097Z,26.10
2018-09-09T14:12:43.651Z,26.10
2018-09-09T14:13:50.656Z,26.10
2018-09-09T14:14:56.163Z,26.00
2018-09-09T14:16:00.524Z,26.00
2018-09-09T14:17:05.223Z,26.00
2018-09-09T14:19:25.949Z,25.90
2018-09-09T14:20:32.828Z,25.90
2018-09-09T14:21:37.711Z,25.90
2018-09-09T14:22:43.613Z,25.90
2018-09-09T14:23:50.280Z,26.00
2018-09-09T14:24:58.837Z,26.00
2018-09-09T14:26:03.287Z,25.90
2018-09-09T14:27:11.097Z,25.90
2018-09-09T14:28:22.228Z,25.90
2018-09-09T14:29:28.383Z,25.90
2018-09-09T14:30:36.458Z,25.90
2018-09-09T14:31:41.602Z,25.80
2018-09-09T14:32:48.226Z,25.80